sensor_id;sensor_type;location;lat;lon;timestamp;pressure;altitude;pressure_sealevel;temperature;humidity
71915;BME280;60387;49.994;14.660;2022-07-04T00:01:17;97667.91;;;21.64;45.95
71915;BME280;60387;49.994;14.660;2022-07-04T00:03:51;97679.31;;;21.62;46.25
71915;BME280;60387;49.994;14.660;2022-07-04T00:06:24;97665.84;;;21.57;45.89
71915;BME280;60387;49.994;14.660;2022-07-04T00:08:57;97672.53;;;21.56;46.14
71915;BME280;60387;49.994;14.660;2022-07-04T00:11:31;97662.63;;;21.52;46.15
71915;BME280;60387;49.994;14.660;2022-07-04T00:14:04;97672.03;;;21.47;46.21
71915;BME280;60387;49.994;14.660;2022-07-04T00:16:37;97662.13;;;21.43;46.40
71915;BME280;60387;49.994;14.660;2022-07-04T00:19:10;97669.91;;;21.37;45.91
71915;BME280;60387;49.994;14.660;2022-07-04T00:21:44;97664.75;;;21.36;46.38
71915;BME280;60387;49.994;14.660;2022-07-04T00:24:17;97664.81;;;21.39;46.60
71915;BME280;60387;49.994;14.660;2022-07-04T00:26:51;97654.91;;;21.35;47.25
71915;BME280;60387;49.994;14.660;2022-07-04T00:29:24;97656.50;;;21.36;49.24
71915;BME280;60387;49.994;14.660;2022-07-04T00:31:57;97661.59;;;21.34;49.00
71915;BME280;60387;49.994;14.660;2022-07-04T00:34:31;97659.59;;;21.31;48.55
71915;BME280;60387;49.994;14.660;2022-07-04T00:37:04;97661.19;;;21.32;48.82
71915;BME280;60387;49.994;14.660;2022-07-04T00:39:37;97656.03;;;21.30;49.39
71915;BME280;60387;49.994;14.660;2022-07-04T00:42:11;97654.44;;;21.29;50.42
71915;BME280;60387;49.994;14.660;2022-07-04T00:44:44;97654.44;;;21.29;49.92
71915;BME280;60387;49.994;14.660;2022-07-04T00:47:17;97649.69;;;21.26;49.80
71915;BME280;60387;49.994;14.660;2022-07-04T00:49:51;97646.47;;;21.24;50.06
71915;BME280;60387;49.994;14.660;2022-07-04T00:52:24;97656.34;;;21.25;51.24
71915;BME280;60387;49.994;14.660;2022-07-04T00:54:57;97657.50;;;21.24;50.32
71915;BME280;60387;49.994;14.660;2022-07-04T00:57:30;97644.78;;;21.16;49.96
71915;BME280;60387;49.994;14.660;2022-07-04T01:00:04;97644.06;;;21.19;50.07
71915;BME280;60387;49.994;14.660;2022-07-04T01:02:38;97652.34;;;21.19;50.67
71915;BME280;60387;49.994;14.660;2022-07-04T01:05:12;97642.78;;;21.13;49.93
71915;BME280;60387;49.994;14.660;2022-07-04T01:07:46;97644.38;;;21.14;51.09
71915;BME280;60387;49.994;14.660;2022-07-04T01:10:19;97649.47;;;21.12;50.74
71915;BME280;60387;49.994;14.660;2022-07-04T01:12:53;97634.41;;;21.06;50.82
71915;BME280;60387;49.994;14.660;2022-07-04T01:15:26;97655.72;;;21.09;51.16
71915;BME280;60387;49.994;14.660;2022-07-04T01:17:59;97650.94;;;21.06;51.69
71915;BME280;60387;49.994;14.660;2022-07-04T01:20:34;97653.28;;;21.04;51.38
71915;BME280;60387;49.994;14.660;2022-07-04T01:23:08;97641.44;;;21.04;50.95
71915;BME280;60387;49.994;14.660;2022-07-04T01:25:42;97634.31;;;20.99;51.14
71915;BME280;60387;49.994;14.660;2022-07-04T01:28:18;97627.59;;;20.97;51.00
71915;BME280;60387;49.994;14.660;2022-07-04T01:30:51;97638.22;;;20.98;51.57
71915;BME280;60387;49.994;14.660;2022-07-04T01:33:25;97646.06;;;20.96;52.13
71915;BME280;60387;49.994;14.660;2022-07-04T01:35:59;97647.25;;;20.95;51.83
71915;BME280;60387;49.994;14.660;2022-07-04T01:38:32;97641.66;;;20.92;51.46
71915;BME280;60387;49.994;14.660;2022-07-04T01:41:05;97645.94;;;20.89;52.22
71915;BME280;60387;49.994;14.660;2022-07-04T01:43:39;97648.72;;;20.89;52.50
71915;BME280;60387;49.994;14.660;2022-07-04T01:46:12;97642.34;;;20.85;51.96
71915;BME280;60387;49.994;14.660;2022-07-04T01:48:45;97648.56;;;20.82;52.00
71915;BME280;60387;49.994;14.660;2022-07-04T01:51:18;97652.88;;;20.80;51.83
71915;BME280;60387;49.994;14.660;2022-07-04T01:53:52;97644.16;;;20.78;54.09
71915;BME280;60387;49.994;14.660;2022-07-04T01:56:25;97651.22;;;20.75;52.04
71915;BME280;60387;49.994;14.660;2022-07-04T01:58:58;97646.00;;;20.70;52.32
71915;BME280;60387;49.994;14.660;2022-07-04T02:01:32;97652.69;;;20.69;52.35
71915;BME280;60387;49.994;14.660;2022-07-04T02:04:06;97653.44;;;20.66;52.57
71915;BME280;60387;49.994;14.660;2022-07-04T02:06:40;97643.13;;;20.63;51.74
71915;BME280;60387;49.994;14.660;2022-07-04T02:09:13;97652.13;;;20.60;51.53
71915;BME280;60387;49.994;14.660;2022-07-04T02:11:47;97654.03;;;20.56;51.54
71915;BME280;60387;49.994;14.660;2022-07-04T02:14:20;97661.06;;;20.54;51.81
71915;BME280;60387;49.994;14.660;2022-07-04T02:16:53;97659.34;;;20.46;51.78
71915;BME280;60387;49.994;14.660;2022-07-04T02:19:27;97668.81;;;20.48;51.79
71915;BME280;60387;49.994;14.660;2022-07-04T02:22:00;97660.13;;;20.46;52.02
71915;BME280;60387;49.994;14.660;2022-07-04T02:24:34;97664.88;;;20.46;51.96
71915;BME280;60387;49.994;14.660;2022-07-04T02:27:07;97667.56;;;20.42;51.91
71915;BME280;60387;49.994;14.660;2022-07-04T02:29:40;97661.56;;;20.37;51.60
71915;BME280;60387;49.994;14.660;2022-07-04T02:32:14;97654.81;;;20.34;52.52
71915;BME280;60387;49.994;14.660;2022-07-04T02:34:47;97670.59;;;20.37;52.47
71915;BME280;60387;49.994;14.660;2022-07-04T02:37:21;97661.09;;;20.35;52.46
71915;BME280;60387;49.994;14.660;2022-07-04T02:39:54;97670.91;;;20.32;52.88
71915;BME280;60387;49.994;14.660;2022-07-04T02:42:33;97678.78;;;20.34;52.21
71915;BME280;60387;49.994;14.660;2022-07-04T02:45:07;97687.41;;;20.32;52.25
71915;BME280;60387;49.994;14.660;2022-07-04T02:47:41;97685.38;;;20.29;52.63
71915;BME280;60387;49.994;14.660;2022-07-04T02:50:14;97686.13;;;20.26;53.16
71915;BME280;60387;49.994;14.660;2022-07-04T02:52:50;97686.41;;;20.21;53.40
71915;BME280;60387;49.994;14.660;2022-07-04T02:55:24;97704.63;;;20.29;52.91
71915;BME280;60387;49.994;14.660;2022-07-04T02:57:57;97713.28;;;20.28;52.56
71915;BME280;60387;49.994;14.660;2022-07-04T03:00:30;97717.22;;;20.30;53.25
71915;BME280;60387;49.994;14.660;2022-07-04T03:03:04;97717.97;;;20.27;53.65
71915;BME280;60387;49.994;14.660;2022-07-04T03:05:37;97735.28;;;20.28;54.61
71915;BME280;60387;49.994;14.660;2022-07-04T03:08:10;97735.22;;;20.24;54.46
71915;BME280;60387;49.994;14.660;2022-07-04T03:10:44;97735.50;;;20.19;53.61
71915;BME280;60387;49.994;14.660;2022-07-04T03:13:18;97733.41;;;20.13;53.66
71915;BME280;60387;49.994;14.660;2022-07-04T03:15:52;97741.22;;;20.11;53.00
71915;BME280;60387;49.994;14.660;2022-07-04T03:18:26;97733.31;;;20.09;52.57
71915;BME280;60387;49.994;14.660;2022-07-04T03:21:00;97733.75;;;20.11;53.57
71915;BME280;60387;49.994;14.660;2022-07-04T03:23:34;97738.41;;;20.07;52.54
71915;BME280;60387;49.994;14.660;2022-07-04T03:26:07;97750.25;;;20.11;52.64
71915;BME280;60387;49.994;14.660;2022-07-04T03:28:41;97750.69;;;20.13;53.30
71915;BME280;60387;49.994;14.660;2022-07-04T03:31:14;97754.75;;;20.19;52.31
71915;BME280;60387;49.994;14.660;2022-07-04T03:33:47;97740.56;;;20.17;52.31
71915;BME280;60387;49.994;14.660;2022-07-04T03:36:21;97753.38;;;20.29;52.45
71915;BME280;60387;49.994;14.660;2022-07-04T03:38:54;97759.59;;;20.45;52.19
71915;BME280;60387;49.994;14.660;2022-07-04T03:41:27;97750.34;;;20.75;53.58
71915;BME280;60387;49.994;14.660;2022-07-04T03:44:00;97760.63;;;21.23;52.71
71915;BME280;60387;49.994;14.660;2022-07-04T03:46:34;97755.81;;;21.65;52.82
71915;BME280;60387;49.994;14.660;2022-07-04T03:49:07;97759.91;;;22.04;51.66
71915;BME280;60387;49.994;14.660;2022-07-04T03:51:40;97764.41;;;22.16;51.09
71915;BME280;60387;49.994;14.660;2022-07-04T03:54:14;97771.91;;;22.19;50.63
71915;BME280;60387;49.994;14.660;2022-07-04T03:56:47;97768.44;;;22.25;50.75
71915;BME280;60387;49.994;14.660;2022-07-04T03:59:20;97769.34;;;22.33;50.65
71915;BME280;60387;49.994;14.660;2022-07-04T04:01:53;97761.75;;;22.26;52.31
71915;BME280;60387;49.994;14.660;2022-07-04T04:04:27;97753.69;;;22.11;51.37
71915;BME280;60387;49.994;14.660;2022-07-04T04:07:00;97754.28;;;21.97;52.08
71915;BME280;60387;49.994;14.660;2022-07-04T04:09:33;97748.31;;;21.92;51.56
71915;BME280;60387;49.994;14.660;2022-07-04T04:12:07;97764.91;;;21.95;51.51
71915;BME280;60387;49.994;14.660;2022-07-04T04:14:40;97762.06;;;21.88;51.19
71915;BME280;60387;49.994;14.660;2022-07-04T04:17:14;97758.88;;;21.86;51.08
71915;BME280;60387;49.994;14.660;2022-07-04T04:19:47;97760.72;;;21.79;52.34
71915;BME280;60387;49.994;14.660;2022-07-04T04:22:20;97773.16;;;21.66;51.79
71915;BME280;60387;49.994;14.660;2022-07-04T04:24:53;97782.06;;;21.59;51.45
71915;BME280;60387;49.994;14.660;2022-07-04T04:27:27;97772.91;;;21.52;51.86
71915;BME280;60387;49.994;14.660;2022-07-04T04:30:00;97781.44;;;21.43;51.45
71915;BME280;60387;49.994;14.660;2022-07-04T04:32:33;97767.97;;;21.38;54.79
71915;BME280;60387;49.994;14.660;2022-07-04T04:35:07;97775.34;;;21.31;52.50
71915;BME280;60387;49.994;14.660;2022-07-04T04:37:40;97785.50;;;21.27;54.68
71915;BME280;60387;49.994;14.660;2022-07-04T04:40:14;97784.94;;;21.18;54.90
71915;BME280;60387;49.994;14.660;2022-07-04T04:42:47;97778.53;;;21.10;53.97
71915;BME280;60387;49.994;14.660;2022-07-04T04:45:20;97784.75;;;21.07;53.40
71915;BME280;60387;49.994;14.660;2022-07-04T04:47:53;97793.47;;;21.09;53.24
71915;BME280;60387;49.994;14.660;2022-07-04T04:50:27;97793.88;;;21.11;53.10
71915;BME280;60387;49.994;14.660;2022-07-04T04:53:00;97785.97;;;21.10;53.15
71915;BME280;60387;49.994;14.660;2022-07-04T04:55:34;97797.50;;;21.15;52.96
71915;BME280;60387;49.994;14.660;2022-07-04T04:58:07;97799.53;;;21.18;52.98
71915;BME280;60387;49.994;14.660;2022-07-04T05:00:40;97810.63;;;21.22;52.93
71915;BME280;60387;49.994;14.660;2022-07-04T05:03:14;97802.38;;;21.25;52.48
71915;BME280;60387;49.994;14.660;2022-07-04T05:05:47;97821.38;;;21.30;52.63
71915;BME280;60387;49.994;14.660;2022-07-04T05:08:20;97818.69;;;21.34;52.71
71915;BME280;60387;49.994;14.660;2022-07-04T05:10:54;97824.31;;;21.41;52.74
71915;BME280;60387;49.994;14.660;2022-07-04T05:13:27;97837.00;;;21.45;52.51
71915;BME280;60387;49.994;14.660;2022-07-04T05:16:00;97835.06;;;21.49;52.91
71915;BME280;60387;49.994;14.660;2022-07-04T05:18:33;97828.78;;;21.49;52.17
71915;BME280;60387;49.994;14.660;2022-07-04T05:21:07;97826.94;;;21.56;52.51
71915;BME280;60387;49.994;14.660;2022-07-04T05:23:40;97813.84;;;21.50;52.60
71915;BME280;60387;49.994;14.660;2022-07-04T05:26:13;97826.94;;;21.56;52.62
71915;BME280;60387;49.994;14.660;2022-07-04T05:28:47;97823.88;;;21.61;53.20
71915;BME280;60387;49.994;14.660;2022-07-04T05:31:20;97826.63;;;21.61;52.26
71915;BME280;60387;49.994;14.660;2022-07-04T05:33:54;97824.72;;;21.65;52.74
71915;BME280;60387;49.994;14.660;2022-07-04T05:36:27;97826.03;;;21.71;52.59
71915;BME280;60387;49.994;14.660;2022-07-04T05:39:01;97820.56;;;21.75;52.43
71915;BME280;60387;49.994;14.660;2022-07-04T05:41:34;97822.31;;;21.86;52.93
71915;BME280;60387;49.994;14.660;2022-07-04T05:44:08;97838.34;;;22.03;53.50
71915;BME280;60387;49.994;14.660;2022-07-04T05:46:41;97840.03;;;22.15;54.02
71915;BME280;60387;49.994;14.660;2022-07-04T05:49:14;97826.75;;;22.20;52.57
71915;BME280;60387;49.994;14.660;2022-07-04T05:51:48;97845.50;;;22.37;52.58
71915;BME280;60387;49.994;14.660;2022-07-04T05:54:21;97845.28;;;22.49;53.22
71915;BME280;60387;49.994;14.660;2022-07-04T05:56:54;97846.13;;;22.53;52.60
71915;BME280;60387;49.994;14.660;2022-07-04T05:59:28;97848.97;;;22.60;53.16
71915;BME280;60387;49.994;14.660;2022-07-04T06:02:01;97844.63;;;22.59;52.71
71915;BME280;60387;49.994;14.660;2022-07-04T06:04:35;97852.13;;;22.59;53.10
71915;BME280;60387;49.994;14.660;2022-07-04T06:07:08;97855.91;;;22.47;53.83
71915;BME280;60387;49.994;14.660;2022-07-04T06:09:42;97859.09;;;22.49;53.33
71915;BME280;60387;49.994;14.660;2022-07-04T06:12:15;97859.84;;;22.46;52.17
71915;BME280;60387;49.994;14.660;2022-07-04T06:14:48;97864.94;;;22.44;52.16
71915;BME280;60387;49.994;14.660;2022-07-04T06:17:21;97871.72;;;22.50;52.47
71915;BME280;60387;49.994;14.660;2022-07-04T06:19:55;97857.16;;;22.53;51.99
71915;BME280;60387;49.994;14.660;2022-07-04T06:22:28;97858.00;;;22.57;52.58
71915;BME280;60387;49.994;14.660;2022-07-04T06:25:12;97863.63;;;22.64;52.69
71915;BME280;60387;49.994;14.660;2022-07-04T06:27:47;97868.81;;;22.69;53.57
71915;BME280;60387;49.994;14.660;2022-07-04T06:30:21;97858.94;;;22.68;53.14
71915;BME280;60387;49.994;14.660;2022-07-04T06:32:55;97870.41;;;22.70;53.39
71915;BME280;60387;49.994;14.660;2022-07-04T06:35:30;97862.88;;;22.67;53.29
71915;BME280;60387;49.994;14.660;2022-07-04T06:38:04;97866.09;;;22.73;53.12
71915;BME280;60387;49.994;14.660;2022-07-04T06:40:38;97852.28;;;22.73;52.55
71915;BME280;60387;49.994;14.660;2022-07-04T06:43:12;97869.31;;;22.78;52.81
71915;BME280;60387;49.994;14.660;2022-07-04T06:45:45;97871.00;;;22.86;52.70
71915;BME280;60387;49.994;14.660;2022-07-04T06:48:19;97871.44;;;22.92;52.69
71915;BME280;60387;49.994;14.660;2022-07-04T06:50:52;97869.56;;;22.99;52.69
71915;BME280;60387;49.994;14.660;2022-07-04T06:53:25;97869.69;;;23.10;52.69
71915;BME280;60387;49.994;14.660;2022-07-04T06:55:58;97866.22;;;23.16;52.20
71915;BME280;60387;49.994;14.660;2022-07-04T06:58:32;97865.09;;;23.21;52.10
71915;BME280;60387;49.994;14.660;2022-07-04T07:01:05;97866.72;;;23.25;51.87
71915;BME280;60387;49.994;14.660;2022-07-04T07:03:38;97876.28;;;23.35;51.81
71915;BME280;60387;49.994;14.660;2022-07-04T07:06:11;97882.31;;;23.47;52.30
71915;BME280;60387;49.994;14.660;2022-07-04T07:08:45;97880.06;;;23.56;52.13
71915;BME280;60387;49.994;14.660;2022-07-04T07:11:18;97886.88;;;23.69;51.68
71915;BME280;60387;49.994;14.660;2022-07-04T07:13:51;97879.91;;;23.82;51.32
71915;BME280;60387;49.994;14.660;2022-07-04T07:16:25;97881.25;;;24.02;51.69
71915;BME280;60387;49.994;14.660;2022-07-04T07:18:58;97872.25;;;24.15;50.92
71915;BME280;60387;49.994;14.660;2022-07-04T07:21:31;97881.44;;;24.30;50.63
71915;BME280;60387;49.994;14.660;2022-07-04T07:24:05;97866.06;;;24.39;50.39
71915;BME280;60387;49.994;14.660;2022-07-04T07:26:38;97872.03;;;24.45;49.96
71915;BME280;60387;49.994;14.660;2022-07-04T07:29:11;97881.13;;;24.45;49.76
71915;BME280;60387;49.994;14.660;2022-07-04T07:31:44;97894.69;;;24.57;49.92
71915;BME280;60387;49.994;14.660;2022-07-04T07:34:18;97895.53;;;24.68;49.60
71915;BME280;60387;49.994;14.660;2022-07-04T07:36:52;97885.28;;;24.76;48.99
71915;BME280;60387;49.994;14.660;2022-07-04T07:39:25;97885.22;;;24.65;48.42
71915;BME280;60387;49.994;14.660;2022-07-04T07:41:58;97876.06;;;24.58;49.15
71915;BME280;60387;49.994;14.660;2022-07-04T07:44:32;97882.50;;;24.76;49.03
71915;BME280;60387;49.994;14.660;2022-07-04T07:47:05;97896.84;;;24.99;49.19
71915;BME280;60387;49.994;14.660;2022-07-04T07:49:39;97888.59;;;25.13;48.41
71915;BME280;60387;49.994;14.660;2022-07-04T07:52:12;97895.34;;;25.19;48.18
71915;BME280;60387;49.994;14.660;2022-07-04T07:54:45;97900.53;;;25.27;48.49
71915;BME280;60387;49.994;14.660;2022-07-04T07:57:18;97895.78;;;25.38;48.41
71915;BME280;60387;49.994;14.660;2022-07-04T07:59:51;97887.91;;;25.44;47.73
71915;BME280;60387;49.994;14.660;2022-07-04T08:02:25;97901.78;;;25.58;47.20
71915;BME280;60387;49.994;14.660;2022-07-04T08:04:58;97891.50;;;25.62;47.42
71915;BME280;60387;49.994;14.660;2022-07-04T08:07:31;97895.06;;;25.80;47.79
71915;BME280;60387;49.994;14.660;2022-07-04T08:10:06;97905.00;;;26.02;46.56
71915;BME280;60387;49.994;14.660;2022-07-04T08:12:39;97913.34;;;26.19;46.71
71915;BME280;60387;49.994;14.660;2022-07-04T08:15:13;97913.31;;;26.30;45.48
71915;BME280;60387;49.994;14.660;2022-07-04T08:17:46;97917.25;;;26.39;46.13
71915;BME280;60387;49.994;14.660;2022-07-04T08:20:19;97913.69;;;26.56;46.38
71915;BME280;60387;49.994;14.660;2022-07-04T08:22:53;97914.03;;;26.79;45.96
71915;BME280;60387;49.994;14.660;2022-07-04T08:25:26;97918.72;;;27.00;45.80
71915;BME280;60387;49.994;14.660;2022-07-04T08:27:59;97908.31;;;27.21;45.69
71915;BME280;60387;49.994;14.660;2022-07-04T08:30:33;97902.22;;;27.43;45.19
71915;BME280;60387;49.994;14.660;2022-07-04T08:33:06;97903.28;;;27.63;44.92
71915;BME280;60387;49.994;14.660;2022-07-04T08:35:39;97901.50;;;27.90;45.00
71915;BME280;60387;49.994;14.660;2022-07-04T08:38:13;97891.72;;;28.19;44.77
71915;BME280;60387;49.994;14.660;2022-07-04T08:40:46;97898.63;;;28.48;44.22
71915;BME280;60387;49.994;14.660;2022-07-04T08:43:23;97898.41;;;28.69;42.97
71915;BME280;60387;49.994;14.660;2022-07-04T08:45:56;97905.34;;;28.88;42.99
71915;BME280;60387;49.994;14.660;2022-07-04T08:48:32;97907.56;;;29.07;42.78
71915;BME280;60387;49.994;14.660;2022-07-04T08:53:49;97899.03;;;29.47;40.84
71915;BME280;60387;49.994;14.660;2022-07-04T08:56:23;97900.25;;;29.46;41.53
71915;BME280;60387;49.994;14.660;2022-07-04T08:58:57;97904.59;;;29.47;40.28
71915;BME280;60387;49.994;14.660;2022-07-04T09:01:31;97906.88;;;29.56;41.41
71915;BME280;60387;49.994;14.660;2022-07-04T09:04:06;97909.22;;;29.61;40.06
71915;BME280;60387;49.994;14.660;2022-07-04T09:06:40;97919.63;;;29.57;40.81
71915;BME280;60387;49.994;14.660;2022-07-04T09:09:13;97920.06;;;29.55;41.12
71915;BME280;60387;49.994;14.660;2022-07-04T09:11:46;97920.53;;;29.50;40.54
71915;BME280;60387;49.994;14.660;2022-07-04T09:14:19;97923.78;;;29.45;39.92
71915;BME280;60387;49.994;14.660;2022-07-04T09:16:53;97922.75;;;29.32;40.05
71915;BME280;60387;49.994;14.660;2022-07-04T09:19:26;97925.69;;;29.22;39.64
71915;BME280;60387;49.994;14.660;2022-07-04T09:22:08;97928.16;;;29.16;40.04
71915;BME280;60387;49.994;14.660;2022-07-04T09:24:51;97928.19;;;29.13;39.46
71915;BME280;60387;49.994;14.660;2022-07-04T09:27:38;97926.31;;;29.03;39.30
71915;BME280;60387;49.994;14.660;2022-07-04T09:30:18;97922.47;;;28.93;39.77
71915;BME280;60387;49.994;14.660;2022-07-04T09:32:54;97924.81;;;28.91;39.85
71915;BME280;60387;49.994;14.660;2022-07-04T09:35:29;97922.03;;;28.95;40.10
71915;BME280;60387;49.994;14.660;2022-07-04T09:38:04;97916.41;;;28.98;40.06
71915;BME280;60387;49.994;14.660;2022-07-04T09:40:39;97911.59;;;29.02;39.72
71915;BME280;60387;49.994;14.660;2022-07-04T09:43:12;97909.53;;;29.06;39.52
71915;BME280;60387;49.994;14.660;2022-07-04T09:45:55;97914.75;;;29.04;39.34
71915;BME280;60387;49.994;14.660;2022-07-04T09:48:48;97913.09;;;29.10;39.94
71915;BME280;60387;49.994;14.660;2022-07-04T09:51:36;97902.84;;;29.30;39.08
71915;BME280;60387;49.994;14.660;2022-07-04T09:54:21;97900.59;;;29.52;39.55
71915;BME280;60387;49.994;14.660;2022-07-04T09:56:56;97901.38;;;29.79;39.00
71915;BME280;60387;49.994;14.660;2022-07-04T09:59:30;97899.75;;;30.04;38.39
71915;BME280;60387;49.994;14.660;2022-07-04T10:02:11;97904.66;;;30.23;38.68
71915;BME280;60387;49.994;14.660;2022-07-04T10:04:49;97905.25;;;30.34;37.56
71915;BME280;60387;49.994;14.660;2022-07-04T10:07:35;97896.91;;;30.31;36.83
71915;BME280;60387;49.994;14.660;2022-07-04T10:10:28;97892.97;;;30.28;38.30
71915;BME280;60387;49.994;14.660;2022-07-04T10:13:10;97895.63;;;30.35;37.38
71915;BME280;60387;49.994;14.660;2022-07-04T10:15:43;97897.91;;;30.44;37.62
71915;BME280;60387;49.994;14.660;2022-07-04T10:18:19;97900.19;;;30.49;36.93
71915;BME280;60387;49.994;14.660;2022-07-04T10:20:54;97898.91;;;30.53;37.64
71915;BME280;60387;49.994;14.660;2022-07-04T10:23:28;97906.94;;;30.74;37.51
71915;BME280;60387;49.994;14.660;2022-07-04T10:26:01;97900.41;;;31.00;37.99
71915;BME280;60387;49.994;14.660;2022-07-04T10:28:37;97891.88;;;31.26;37.60
71915;BME280;60387;49.994;14.660;2022-07-04T10:31:10;97886.44;;;31.55;36.87
71915;BME280;60387;49.994;14.660;2022-07-04T10:33:44;97891.59;;;31.76;35.65
71915;BME280;60387;49.994;14.660;2022-07-04T10:36:20;97891.84;;;31.97;36.41
71915;BME280;60387;49.994;14.660;2022-07-04T10:39:00;97891.22;;;32.06;34.73
71915;BME280;60387;49.994;14.660;2022-07-04T10:41:34;97891.22;;;32.06;33.82
71915;BME280;60387;49.994;14.660;2022-07-04T10:44:07;97891.56;;;32.08;33.73
71915;BME280;60387;49.994;14.660;2022-07-04T10:46:46;97889.47;;;32.12;34.19
71915;BME280;60387;49.994;14.660;2022-07-04T10:49:21;97895.44;;;32.30;34.13
71915;BME280;60387;49.994;14.660;2022-07-04T10:52:12;97893.13;;;32.57;33.19
71915;BME280;60387;49.994;14.660;2022-07-04T10:54:45;97889.22;;;32.83;34.32
71915;BME280;60387;49.994;14.660;2022-07-04T10:57:20;97888.75;;;33.13;33.34
71915;BME280;60387;49.994;14.660;2022-07-04T11:02:29;97898.63;;;33.46;32.46
71915;BME280;60387;49.994;14.660;2022-07-04T11:05:06;97892.91;;;33.37;31.97
71915;BME280;60387;49.994;14.660;2022-07-04T11:18:09;97897.72;;;33.49;32.06
71915;BME280;60387;49.994;14.660;2022-07-04T11:20:45;97907.53;;;33.57;32.90
71915;BME280;60387;49.994;14.660;2022-07-04T11:23:19;97898.41;;;33.65;32.85
71915;BME280;60387;49.994;14.660;2022-07-04T11:25:52;97907.31;;;33.64;31.19
71915;BME280;60387;49.994;14.660;2022-07-04T11:28:30;97902.66;;;33.57;32.68
71915;BME280;60387;49.994;14.660;2022-07-04T11:31:03;97893.13;;;33.55;31.48
71915;BME280;60387;49.994;14.660;2022-07-04T11:33:37;97895.94;;;33.55;29.97
71915;BME280;60387;49.994;14.660;2022-07-04T11:36:14;97898.84;;;33.39;31.92
71915;BME280;60387;49.994;14.660;2022-07-04T11:41:27;97909.16;;;33.01;31.49
71915;BME280;60387;49.994;14.660;2022-07-04T11:44:09;97903.41;;;32.92;32.99
71915;BME280;60387;49.994;14.660;2022-07-04T11:46:43;97913.00;;;32.78;32.94
71915;BME280;60387;49.994;14.660;2022-07-04T11:49:16;97898.22;;;32.62;33.45
71915;BME280;60387;49.994;14.660;2022-07-04T11:51:49;97905.66;;;32.52;32.70
71915;BME280;60387;49.994;14.660;2022-07-04T11:54:23;97905.84;;;32.45;32.86
71915;BME280;60387;49.994;14.660;2022-07-04T11:57:14;97899.66;;;32.38;32.69
71915;BME280;60387;49.994;14.660;2022-07-04T12:02:28;97902.47;;;32.22;34.22
71915;BME280;60387;49.994;14.660;2022-07-04T12:05:04;97903.50;;;32.12;33.98
71915;BME280;60387;49.994;14.660;2022-07-04T12:07:42;97906.47;;;32.05;34.57
71915;BME280;60387;49.994;14.660;2022-07-04T12:10:21;97901.03;;;31.98;34.07
71915;BME280;60387;49.994;14.660;2022-07-04T12:12:57;97906.13;;;32.03;34.81
71915;BME280;60387;49.994;14.660;2022-07-04T12:15:38;97902.91;;;32.04;34.58
71915;BME280;60387;49.994;14.660;2022-07-04T12:18:17;97891.06;;;32.13;34.75
71915;BME280;60387;49.994;14.660;2022-07-04T12:20:52;97889.69;;;32.21;34.46
71915;BME280;60387;49.994;14.660;2022-07-04T12:23:25;97879.84;;;32.29;34.16
71915;BME280;60387;49.994;14.660;2022-07-04T12:25:58;97873.09;;;32.42;34.51
71915;BME280;60387;49.994;14.660;2022-07-04T12:28:35;97871.47;;;32.57;34.07
71915;BME280;60387;49.994;14.660;2022-07-04T12:31:09;97882.22;;;32.75;33.21
71915;BME280;60387;49.994;14.660;2022-07-04T12:33:53;97883.88;;;33.01;34.42
71915;BME280;60387;49.994;14.660;2022-07-04T12:36:27;97879.81;;;33.30;32.33
71915;BME280;60387;49.994;14.660;2022-07-04T12:39:00;97878.50;;;33.60;32.94
71915;BME280;60387;49.994;14.660;2022-07-04T12:41:34;97878.31;;;33.92;32.00
71915;BME280;60387;49.994;14.660;2022-07-04T12:44:07;97881.75;;;34.08;32.34
71915;BME280;60387;49.994;14.660;2022-07-04T12:46:40;97879.66;;;34.25;31.08
71915;BME280;60387;49.994;14.660;2022-07-04T12:49:16;97871.28;;;34.34;30.60
71915;BME280;60387;49.994;14.660;2022-07-04T12:51:50;97871.28;;;34.34;31.42
71915;BME280;60387;49.994;14.660;2022-07-04T12:54:23;97862.75;;;34.25;31.70
71915;BME280;60387;49.994;14.660;2022-07-04T12:57:14;97862.19;;;34.17;31.80
71915;BME280;60387;49.994;14.660;2022-07-04T12:59:47;97862.97;;;34.18;31.55
71915;BME280;60387;49.994;14.660;2022-07-04T13:02:21;97850.06;;;34.08;31.52
71915;BME280;60387;49.994;14.660;2022-07-04T13:04:54;97858.38;;;34.11;31.30
71915;BME280;60387;49.994;14.660;2022-07-04T13:07:27;97852.16;;;34.16;31.69
71915;BME280;60387;49.994;14.660;2022-07-04T13:10:01;97851.16;;;34.35;31.58
71915;BME280;60387;49.994;14.660;2022-07-04T13:12:34;97844.03;;;34.43;29.77
71915;BME280;60387;49.994;14.660;2022-07-04T13:15:08;97846.63;;;34.38;30.71
71915;BME280;60387;49.994;14.660;2022-07-04T13:17:41;97848.47;;;34.32;30.63
71915;BME280;60387;49.994;14.660;2022-07-04T13:20:14;97843.53;;;34.23;30.49
71915;BME280;60387;49.994;14.660;2022-07-04T13:22:48;97833.84;;;34.12;29.92
71915;BME280;60387;49.994;14.660;2022-07-04T13:25:21;97832.41;;;33.95;31.07
71915;BME280;60387;49.994;14.660;2022-07-04T13:27:54;97832.09;;;33.80;30.90
71915;BME280;60387;49.994;14.660;2022-07-04T13:30:28;97839.09;;;33.76;32.15
71915;BME280;60387;49.994;14.660;2022-07-04T13:33:01;97832.88;;;33.68;31.60
71915;BME280;60387;49.994;14.660;2022-07-04T13:35:34;97845.47;;;33.64;31.05
71915;BME280;60387;49.994;14.660;2022-07-04T13:38:08;97846.81;;;33.47;31.77
71915;BME280;60387;49.994;14.660;2022-07-04T13:40:42;97846.59;;;33.29;31.20
71915;BME280;60387;49.994;14.660;2022-07-04T13:43:15;97838.31;;;33.09;32.38
71915;BME280;60387;49.994;14.660;2022-07-04T13:45:48;97832.47;;;33.04;31.59
71915;BME280;60387;49.994;14.660;2022-07-04T13:48:22;97833.16;;;33.08;31.36